sensor_id;sensor_type;location;lat;lon;timestamp;P1;durP1;ratioP1;P2;durP2;ratioP2
75837;SDS011;64480;52.040;113.502;2023-08-01T00:01:40;25.30;;;10.55;;
75837;SDS011;64480;52.040;113.502;2023-08-01T00:04:45;24.77;;;13.02;;
75837;SDS011;64480;52.040;113.502;2023-08-01T00:07:50;18.90;;;10.15;;
75837;SDS011;64480;52.040;113.502;2023-08-01T00:10:54;26.20;;;11.55;;
75837;SDS011;64480;52.040;113.502;2023-08-01T00:13:58;31.92;;;11.55;;
75837;SDS011;64480;52.040;113.502;2023-08-01T00:17:02;20.65;;;11.05;;
75837;SDS011;64480;52.040;113.502;2023-08-01T00:20:06;20.30;;;11.00;;
75837;SDS011;64480;52.040;113.502;2023-08-01T00:23:12;26.20;;;12.90;;
75837;SDS011;64480;52.040;113.502;2023-08-01T00:26:15;20.60;;;11.50;;
75837;SDS011;64480;52.040;113.502;2023-08-01T00:29:20;41.50;;;13.18;;
75837;SDS011;64480;52.040;113.502;2023-08-01T00:32:25;23.92;;;10.93;;
75837;SDS011;64480;52.040;113.502;2023-08-01T00:35:28;21.25;;;12.25;;
75837;SDS011;64480;52.040;113.502;2023-08-01T00:38:32;21.95;;;11.00;;
75837;SDS011;64480;52.040;113.502;2023-08-01T00:41:36;16.45;;;10.80;;
75837;SDS011;64480;52.040;113.502;2023-08-01T00:44:41;26.35;;;12.50;;
75837;SDS011;64480;52.040;113.502;2023-08-01T00:47:45;43.92;;;15.00;;
75837;SDS011;64480;52.040;113.502;2023-08-01T00:50:49;27.35;;;13.27;;
75837;SDS011;64480;52.040;113.502;2023-08-01T00:53:53;29.50;;;12.10;;
75837;SDS011;64480;52.040;113.502;2023-08-01T00:56:57;44.33;;;18.77;;
75837;SDS011;64480;52.040;113.502;2023-08-01T01:00:01;27.50;;;13.55;;
75837;SDS011;64480;52.040;113.502;2023-08-01T01:03:06;32.22;;;13.55;;
75837;SDS011;64480;52.040;113.502;2023-08-01T01:06:14;34.28;;;13.70;;
75837;SDS011;64480;52.040;113.502;2023-08-01T01:09:27;44.38;;;15.48;;
75837;SDS011;64480;52.040;113.502;2023-08-01T01:12:33;30.15;;;13.25;;
75837;SDS011;64480;52.040;113.502;2023-08-01T01:15:42;34.60;;;12.82;;
75837;SDS011;64480;52.040;113.502;2023-08-01T01:18:46;43.53;;;14.25;;
75837;SDS011;64480;52.040;113.502;2023-08-01T01:22:06;37.00;;;14.82;;
75837;SDS011;64480;52.040;113.502;2023-08-01T01:25:14;36.70;;;16.55;;
75837;SDS011;64480;52.040;113.502;2023-08-01T01:28:18;32.33;;;12.18;;
75837;SDS011;64480;52.040;113.502;2023-08-01T01:31:27;27.52;;;12.77;;
75837;SDS011;64480;52.040;113.502;2023-08-01T01:34:33;27.05;;;12.80;;
75837;SDS011;64480;52.040;113.502;2023-08-01T01:37:38;28.63;;;13.05;;
75837;SDS011;64480;52.040;113.502;2023-08-01T01:40:43;34.15;;;12.95;;
75837;SDS011;64480;52.040;113.502;2023-08-01T01:43:49;31.20;;;13.15;;
75837;SDS011;64480;52.040;113.502;2023-08-01T01:46:54;27.00;;;11.68;;
75837;SDS011;64480;52.040;113.502;2023-08-01T01:49:58;32.17;;;12.38;;
75837;SDS011;64480;52.040;113.502;2023-08-01T01:53:03;37.47;;;21.40;;
75837;SDS011;64480;52.040;113.502;2023-08-01T01:56:09;24.63;;;12.10;;
75837;SDS011;64480;52.040;113.502;2023-08-01T01:59:13;31.98;;;16.38;;
75837;SDS011;64480;52.040;113.502;2023-08-01T02:02:18;32.05;;;13.45;;
75837;SDS011;64480;52.040;113.502;2023-08-01T02:05:22;23.35;;;14.38;;
75837;SDS011;64480;52.040;113.502;2023-08-01T02:08:27;30.60;;;14.35;;
75837;SDS011;64480;52.040;113.502;2023-08-01T02:14:37;34.08;;;14.70;;
75837;SDS011;64480;52.040;113.502;2023-08-01T02:17:41;25.40;;;12.70;;
75837;SDS011;64480;52.040;113.502;2023-08-01T02:20:45;26.27;;;13.63;;
75837;SDS011;64480;52.040;113.502;2023-08-01T02:23:50;37.42;;;15.18;;
75837;SDS011;64480;52.040;113.502;2023-08-01T02:26:54;28.35;;;13.27;;
75837;SDS011;64480;52.040;113.502;2023-08-01T02:29:58;37.58;;;14.25;;
75837;SDS011;64480;52.040;113.502;2023-08-01T02:33:02;32.85;;;14.93;;
75837;SDS011;64480;52.040;113.502;2023-08-01T02:36:06;26.48;;;14.25;;
75837;SDS011;64480;52.040;113.502;2023-08-01T02:39:11;27.15;;;14.73;;
75837;SDS011;64480;52.040;113.502;2023-08-01T02:42:19;26.75;;;13.80;;
75837;SDS011;64480;52.040;113.502;2023-08-01T02:45:24;38.25;;;16.80;;
75837;SDS011;64480;52.040;113.502;2023-08-01T02:48:28;32.58;;;13.98;;
75837;SDS011;64480;52.040;113.502;2023-08-01T02:51:33;31.52;;;13.90;;
75837;SDS011;64480;52.040;113.502;2023-08-01T02:54:38;29.20;;;12.43;;
75837;SDS011;64480;52.040;113.502;2023-08-01T02:57:43;27.13;;;13.27;;
75837;SDS011;64480;52.040;113.502;2023-08-01T03:00:50;34.47;;;13.85;;
75837;SDS011;64480;52.040;113.502;2023-08-01T03:03:56;28.58;;;13.73;;
75837;SDS011;64480;52.040;113.502;2023-08-01T03:07:00;25.35;;;12.60;;
75837;SDS011;64480;52.040;113.502;2023-08-01T03:10:04;32.30;;;12.95;;
75837;SDS011;64480;52.040;113.502;2023-08-01T03:13:15;33.40;;;14.00;;
75837;SDS011;64480;52.040;113.502;2023-08-01T03:16:20;21.85;;;11.23;;
75837;SDS011;64480;52.040;113.502;2023-08-01T03:19:37;26.85;;;12.60;;
75837;SDS011;64480;52.040;113.502;2023-08-01T03:22:42;30.98;;;12.52;;
75837;SDS011;64480;52.040;113.502;2023-08-01T03:25:47;32.83;;;12.70;;
75837;SDS011;64480;52.040;113.502;2023-08-01T03:28:50;24.58;;;13.20;;
75837;SDS011;64480;52.040;113.502;2023-08-01T03:31:55;31.13;;;12.70;;
75837;SDS011;64480;52.040;113.502;2023-08-01T03:34:59;35.20;;;14.27;;
75837;SDS011;64480;52.040;113.502;2023-08-01T03:38:02;25.88;;;11.60;;
75837;SDS011;64480;52.040;113.502;2023-08-01T03:41:07;25.42;;;13.15;;
75837;SDS011;64480;52.040;113.502;2023-08-01T03:44:20;22.67;;;10.35;;
75837;SDS011;64480;52.040;113.502;2023-08-01T03:47:27;25.58;;;12.15;;
75837;SDS011;64480;52.040;113.502;2023-08-01T03:50:33;33.90;;;11.13;;
75837;SDS011;64480;52.040;113.502;2023-08-01T03:53:50;22.45;;;12.18;;
75837;SDS011;64480;52.040;113.502;2023-08-01T03:57:08;25.23;;;11.65;;
75837;SDS011;64480;52.040;113.502;2023-08-01T04:00:25;24.65;;;11.48;;
75837;SDS011;64480;52.040;113.502;2023-08-01T04:03:41;15.05;;;7.95;;
75837;SDS011;64480;52.040;113.502;2023-08-01T04:06:58;18.20;;;9.88;;
75837;SDS011;64480;52.040;113.502;2023-08-01T04:10:04;19.17;;;8.00;;
75837;SDS011;64480;52.040;113.502;2023-08-01T04:13:10;15.25;;;8.75;;
75837;SDS011;64480;52.040;113.502;2023-08-01T04:16:16;14.05;;;7.82;;
75837;SDS011;64480;52.040;113.502;2023-08-01T04:19:33;14.60;;;7.55;;
75837;SDS011;64480;52.040;113.502;2023-08-01T04:22:45;11.52;;;6.55;;
75837;SDS011;64480;52.040;113.502;2023-08-01T04:26:05;11.90;;;6.72;;
75837;SDS011;64480;52.040;113.502;2023-08-01T04:29:09;13.20;;;8.50;;
75837;SDS011;64480;52.040;113.502;2023-08-01T04:32:16;14.00;;;7.45;;
75837;SDS011;64480;52.040;113.502;2023-08-01T04:35:33;13.73;;;6.88;;
75837;SDS011;64480;52.040;113.502;2023-08-01T04:38:50;14.70;;;9.40;;
75837;SDS011;64480;52.040;113.502;2023-08-01T04:42:06;18.30;;;7.55;;
75837;SDS011;64480;52.040;113.502;2023-08-01T04:45:12;9.60;;;7.00;;
75837;SDS011;64480;52.040;113.502;2023-08-01T04:48:18;10.57;;;5.93;;
75837;SDS011;64480;52.040;113.502;2023-08-01T04:51:31;14.13;;;7.60;;
75837;SDS011;64480;52.040;113.502;2023-08-01T04:54:36;12.02;;;7.60;;
75837;SDS011;64480;52.040;113.502;2023-08-01T04:57:40;11.65;;;6.75;;
75837;SDS011;64480;52.040;113.502;2023-08-01T05:00:47;9.63;;;7.47;;
75837;SDS011;64480;52.040;113.502;2023-08-01T05:03:50;10.82;;;7.13;;
75837;SDS011;64480;52.040;113.502;2023-08-01T05:06:55;12.82;;;7.47;;
75837;SDS011;64480;52.040;113.502;2023-08-01T05:09:59;11.20;;;7.10;;
75837;SDS011;64480;52.040;113.502;2023-08-01T05:13:03;6.95;;;6.10;;
75837;SDS011;64480;52.040;113.502;2023-08-01T05:16:08;14.07;;;7.43;;
75837;SDS011;64480;52.040;113.502;2023-08-01T05:23:01;10.13;;;6.25;;
75837;SDS011;64480;52.040;113.502;2023-08-01T05:29:10;9.02;;;5.72;;
75837;SDS011;64480;52.040;113.502;2023-08-01T05:32:15;14.23;;;7.05;;
75837;SDS011;64480;52.040;113.502;2023-08-01T05:35:19;23.92;;;8.15;;
75837;SDS011;64480;52.040;113.502;2023-08-01T05:38:25;15.25;;;7.20;;
75837;SDS011;64480;52.040;113.502;2023-08-01T05:41:29;15.80;;;6.47;;
75837;SDS011;64480;52.040;113.502;2023-08-01T05:44:34;19.70;;;6.20;;
75837;SDS011;64480;52.040;113.502;2023-08-01T05:47:38;12.20;;;5.75;;
75837;SDS011;64480;52.040;113.502;2023-08-01T05:50:48;14.73;;;6.03;;
75837;SDS011;64480;52.040;113.502;2023-08-01T05:53:53;11.38;;;6.00;;
75837;SDS011;64480;52.040;113.502;2023-08-01T06:00:06;12.68;;;5.57;;
75837;SDS011;64480;52.040;113.502;2023-08-01T06:03:13;13.48;;;5.60;;
75837;SDS011;64480;52.040;113.502;2023-08-01T06:06:19;12.77;;;7.32;;
75837;SDS011;64480;52.040;113.502;2023-08-01T06:09:23;16.02;;;6.82;;
75837;SDS011;64480;52.040;113.502;2023-08-01T06:12:30;11.57;;;5.72;;
75837;SDS011;64480;52.040;113.502;2023-08-01T06:15:34;11.73;;;6.07;;
75837;SDS011;64480;52.040;113.502;2023-08-01T06:18:52;19.85;;;7.53;;
75837;SDS011;64480;52.040;113.502;2023-08-01T06:21:57;8.82;;;5.28;;
75837;SDS011;64480;52.040;113.502;2023-08-01T06:25:01;11.20;;;5.78;;
75837;SDS011;64480;52.040;113.502;2023-08-01T06:28:05;12.85;;;5.47;;
75837;SDS011;64480;52.040;113.502;2023-08-01T06:31:09;15.50;;;6.30;;
75837;SDS011;64480;52.040;113.502;2023-08-01T06:34:14;19.73;;;7.15;;
75837;SDS011;64480;52.040;113.502;2023-08-01T06:37:19;14.95;;;6.97;;
75837;SDS011;64480;52.040;113.502;2023-08-01T06:43:30;12.70;;;6.43;;
75837;SDS011;64480;52.040;113.502;2023-08-01T06:46:33;14.15;;;5.45;;
75837;SDS011;64480;52.040;113.502;2023-08-01T06:49:38;15.50;;;6.10;;
75837;SDS011;64480;52.040;113.502;2023-08-01T06:52:42;17.73;;;8.00;;
75837;SDS011;64480;52.040;113.502;2023-08-01T06:55:51;11.70;;;5.55;;
75837;SDS011;64480;52.040;113.502;2023-08-01T06:58:54;10.57;;;6.88;;
75837;SDS011;64480;52.040;113.502;2023-08-01T07:01:59;13.15;;;5.20;;
75837;SDS011;64480;52.040;113.502;2023-08-01T07:05:04;13.18;;;5.53;;
75837;SDS011;64480;52.040;113.502;2023-08-01T07:08:09;11.80;;;5.47;;
75837;SDS011;64480;52.040;113.502;2023-08-01T07:11:13;8.77;;;5.03;;
75837;SDS011;64480;52.040;113.502;2023-08-01T07:14:18;11.20;;;5.93;;
75837;SDS011;64480;52.040;113.502;2023-08-01T07:17:22;12.43;;;6.00;;
75837;SDS011;64480;52.040;113.502;2023-08-01T07:20:27;21.90;;;7.18;;
75837;SDS011;64480;52.040;113.502;2023-08-01T07:23:33;13.27;;;5.90;;
75837;SDS011;64480;52.040;113.502;2023-08-01T07:26:39;13.05;;;5.78;;
75837;SDS011;64480;52.040;113.502;2023-08-01T07:29:44;10.18;;;5.50;;
75837;SDS011;64480;52.040;113.502;2023-08-01T07:32:57;12.15;;;5.70;;
75837;SDS011;64480;52.040;113.502;2023-08-01T07:36:05;12.40;;;5.75;;
75837;SDS011;64480;52.040;113.502;2023-08-01T07:39:10;8.63;;;5.65;;
75837;SDS011;64480;52.040;113.502;2023-08-01T07:42:15;13.95;;;6.13;;
75837;SDS011;64480;52.040;113.502;2023-08-01T07:45:20;15.65;;;7.07;;
75837;SDS011;64480;52.040;113.502;2023-08-01T07:48:25;20.20;;;8.07;;
75837;SDS011;64480;52.040;113.502;2023-08-01T07:51:30;21.30;;;8.35;;
75837;SDS011;64480;52.040;113.502;2023-08-01T07:54:36;17.75;;;7.20;;
75837;SDS011;64480;52.040;113.502;2023-08-01T08:01:19;18.55;;;7.55;;
75837;SDS011;64480;52.040;113.502;2023-08-01T08:04:24;22.27;;;8.75;;
75837;SDS011;64480;52.040;113.502;2023-08-01T08:07:29;21.45;;;6.78;;
75837;SDS011;64480;52.040;113.502;2023-08-01T08:10:34;24.63;;;8.55;;
75837;SDS011;64480;52.040;113.502;2023-08-01T08:13:39;28.15;;;10.15;;
75837;SDS011;64480;52.040;113.502;2023-08-01T08:16:44;38.05;;;8.85;;
75837;SDS011;64480;52.040;113.502;2023-08-01T08:19:49;17.23;;;8.20;;
75837;SDS011;64480;52.040;113.502;2023-08-01T08:22:54;26.67;;;9.77;;
75837;SDS011;64480;52.040;113.502;2023-08-01T08:25:59;20.50;;;8.90;;
75837;SDS011;64480;52.040;113.502;2023-08-01T08:29:03;23.63;;;9.25;;
75837;SDS011;64480;52.040;113.502;2023-08-01T08:32:22;25.52;;;9.57;;
75837;SDS011;64480;52.040;113.502;2023-08-01T08:35:27;24.85;;;8.75;;
75837;SDS011;64480;52.040;113.502;2023-08-01T08:38:32;30.00;;;9.27;;
75837;SDS011;64480;52.040;113.502;2023-08-01T08:41:50;37.53;;;9.73;;
75837;SDS011;64480;52.040;113.502;2023-08-01T08:44:55;37.72;;;11.10;;
75837;SDS011;64480;52.040;113.502;2023-08-01T08:48:21;44.25;;;11.27;;
75837;SDS011;64480;52.040;113.502;2023-08-01T08:51:30;41.70;;;10.38;;
75837;SDS011;64480;52.040;113.502;2023-08-01T08:58:26;28.67;;;8.50;;
75837;SDS011;64480;52.040;113.502;2023-08-01T09:01:34;28.20;;;8.32;;
75837;SDS011;64480;52.040;113.502;2023-08-01T09:04:44;23.40;;;8.18;;
75837;SDS011;64480;52.040;113.502;2023-08-01T09:07:48;22.42;;;7.93;;
75837;SDS011;64480;52.040;113.502;2023-08-01T09:10:56;33.20;;;9.48;;
75837;SDS011;64480;52.040;113.502;2023-08-01T09:14:15;22.67;;;7.95;;
75837;SDS011;64480;52.040;113.502;2023-08-01T09:17:23;19.70;;;7.50;;
75837;SDS011;64480;52.040;113.502;2023-08-01T09:20:40;17.63;;;6.97;;
75837;SDS011;64480;52.040;113.502;2023-08-01T09:24:13;18.10;;;7.35;;
75837;SDS011;64480;52.040;113.502;2023-08-01T09:27:20;35.25;;;7.80;;
75837;SDS011;64480;52.040;113.502;2023-08-01T09:30:45;17.42;;;7.20;;
75837;SDS011;64480;52.040;113.502;2023-08-01T09:34:00;14.02;;;6.28;;
75837;SDS011;64480;52.040;113.502;2023-08-01T09:37:09;20.85;;;7.85;;
75837;SDS011;64480;52.040;113.502;2023-08-01T09:40:15;19.52;;;6.85;;
75837;SDS011;64480;52.040;113.502;2023-08-01T09:43:35;19.45;;;7.72;;
75837;SDS011;64480;52.040;113.502;2023-08-01T09:46:42;18.83;;;7.40;;
75837;SDS011;64480;52.040;113.502;2023-08-01T09:53:08;23.40;;;7.70;;
75837;SDS011;64480;52.040;113.502;2023-08-01T09:56:14;21.10;;;8.00;;
75837;SDS011;64480;52.040;113.502;2023-08-01T09:59:28;30.10;;;9.13;;
75837;SDS011;64480;52.040;113.502;2023-08-01T10:02:34;17.42;;;7.18;;
75837;SDS011;64480;52.040;113.502;2023-08-01T10:05:54;20.33;;;6.88;;
75837;SDS011;64480;52.040;113.502;2023-08-01T10:09:00;30.48;;;9.07;;
75837;SDS011;64480;52.040;113.502;2023-08-01T10:12:17;30.25;;;8.10;;
75837;SDS011;64480;52.040;113.502;2023-08-01T10:15:24;18.60;;;8.50;;
75837;SDS011;64480;52.040;113.502;2023-08-01T10:18:31;20.50;;;8.38;;
75837;SDS011;64480;52.040;113.502;2023-08-01T10:21:39;21.08;;;8.35;;
75837;SDS011;64480;52.040;113.502;2023-08-01T10:24:50;19.15;;;8.93;;
75837;SDS011;64480;52.040;113.502;2023-08-01T10:28:04;17.13;;;8.75;;
75837;SDS011;64480;52.040;113.502;2023-08-01T10:31:22;23.70;;;10.50;;
75837;SDS011;64480;52.040;113.502;2023-08-01T10:34:28;14.88;;;7.22;;
75837;SDS011;64480;52.040;113.502;2023-08-01T10:37:40;15.85;;;8.35;;
75837;SDS011;64480;52.040;113.502;2023-08-01T10:40:58;24.58;;;9.70;;
75837;SDS011;64480;52.040;113.502;2023-08-01T10:44:10;20.70;;;9.30;;
75837;SDS011;64480;52.040;113.502;2023-08-01T10:47:25;27.55;;;9.90;;
75837;SDS011;64480;52.040;113.502;2023-08-01T10:50:30;19.75;;;8.43;;
75837;SDS011;64480;52.040;113.502;2023-08-01T10:53:38;21.55;;;8.27;;
75837;SDS011;64480;52.040;113.502;2023-08-01T10:56:56;24.92;;;9.00;;
75837;SDS011;64480;52.040;113.502;2023-08-01T11:00:15;18.60;;;8.55;;
75837;SDS011;64480;52.040;113.502;2023-08-01T11:03:34;20.88;;;8.50;;
75837;SDS011;64480;52.040;113.502;2023-08-01T11:06:53;16.83;;;6.97;;
75837;SDS011;64480;52.040;113.502;2023-08-01T11:10:16;15.13;;;8.32;;
75837;SDS011;64480;52.040;113.502;2023-08-01T11:13:35;20.60;;;8.30;;
75837;SDS011;64480;52.040;113.502;2023-08-01T11:16:53;19.60;;;8.00;;
75837;SDS011;64480;52.040;113.502;2023-08-01T11:20:12;25.15;;;7.93;;
75837;SDS011;64480;52.040;113.502;2023-08-01T11:23:32;19.60;;;8.50;;
75837;SDS011;64480;52.040;113.502;2023-08-01T11:26:49;18.75;;;8.40;;
75837;SDS011;64480;52.040;113.502;2023-08-01T11:30:09;17.20;;;7.47;;
75837;SDS011;64480;52.040;113.502;2023-08-01T11:33:26;16.35;;;8.25;;
75837;SDS011;64480;52.040;113.502;2023-08-01T11:36:46;15.43;;;7.78;;
75837;SDS011;64480;52.040;113.502;2023-08-01T11:39:53;24.40;;;9.20;;
75837;SDS011;64480;52.040;113.502;2023-08-01T11:43:12;24.88;;;9.15;;
75837;SDS011;64480;52.040;113.502;2023-08-01T11:46:32;13.15;;;7.95;;
75837;SDS011;64480;52.040;113.502;2023-08-01T11:49:39;23.75;;;9.77;;
75837;SDS011;64480;52.040;113.502;2023-08-01T11:52:49;22.98;;;9.20;;
75837;SDS011;64480;52.040;113.502;2023-08-01T11:55:54;31.48;;;9.50;;
75837;SDS011;64480;52.040;113.502;2023-08-01T11:59:14;21.38;;;8.95;;
75837;SDS011;64480;52.040;113.502;2023-08-01T12:02:25;27.25;;;9.85;;
75837;SDS011;64480;52.040;113.502;2023-08-01T12:05:43;23.25;;;9.70;;
75837;SDS011;64480;52.040;113.502;2023-08-01T12:08:51;20.98;;;9.05;;
75837;SDS011;64480;52.040;113.502;2023-08-01T12:15:10;24.80;;;8.90;;
75837;SDS011;64480;52.040;113.502;2023-08-01T12:18:28;22.00;;;9.05;;
75837;SDS011;64480;52.040;113.502;2023-08-01T12:21:57;27.40;;;9.98;;
75837;SDS011;64480;52.040;113.502;2023-08-01T12:25:07;35.45;;;10.80;;
75837;SDS011;64480;52.040;113.502;2023-08-01T12:28:10;25.90;;;9.90;;
75837;SDS011;64480;52.040;113.502;2023-08-01T12:31:24;23.23;;;9.90;;
75837;SDS011;64480;52.040;113.502;2023-08-01T12:34:43;23.55;;;8.93;;
75837;SDS011;64480;52.040;113.502;2023-08-01T12:37:56;28.05;;;10.32;;
75837;SDS011;64480;52.040;113.502;2023-08-01T12:41:06;29.73;;;9.65;;
75837;SDS011;64480;52.040;113.502;2023-08-01T12:44:37;27.73;;;10.43;;
75837;SDS011;64480;52.040;113.502;2023-08-01T12:47:44;25.05;;;10.00;;
75837;SDS011;64480;52.040;113.502;2023-08-01T12:51:00;35.15;;;10.23;;
75837;SDS011;64480;52.040;113.502;2023-08-01T12:54:19;37.05;;;11.02;;
75837;SDS011;64480;52.040;113.502;2023-08-01T12:57:37;24.88;;;10.90;;
75837;SDS011;64480;52.040;113.502;2023-08-01T13:00:42;25.75;;;10.38;;
75837;SDS011;64480;52.040;113.502;2023-08-01T13:04:03;25.85;;;10.90;;
75837;SDS011;64480;52.040;113.502;2023-08-01T13:07:10;25.40;;;10.38;;
75837;SDS011;64480;52.040;113.502;2023-08-01T13:10:22;29.90;;;11.13;;
75837;SDS011;64480;52.040;113.502;2023-08-01T13:13:27;28.70;;;10.65;;
75837;SDS011;64480;52.040;113.502;2023-08-01T13:16:45;29.20;;;10.63;;
75837;SDS011;64480;52.040;113.502;2023-08-01T13:20:03;20.73;;;9.63;;
75837;SDS011;64480;52.040;113.502;2023-08-01T13:23:10;24.05;;;10.20;;
75837;SDS011;64480;52.040;113.502;2023-08-01T13:26:28;20.02;;;9.60;;
75837;SDS011;64480;52.040;113.502;2023-08-01T13:29:34;26.83;;;10.05;;
75837;SDS011;64480;52.040;113.502;2023-08-01T13:32:38;20.80;;;8.50;;
75837;SDS011;64480;52.040;113.502;2023-08-01T13:35:43;29.80;;;9.80;;
75837;SDS011;64480;52.040;113.502;2023-08-01T13:38:49;21.35;;;9.18;;
75837;SDS011;64480;52.040;113.502;2023-08-01T13:42:06;19.00;;;8.68;;
75837;SDS011;64480;52.040;113.502;2023-08-01T13:45:23;20.15;;;9.55;;
75837;SDS011;64480;52.040;113.502;2023-08-01T13:48:41;22.10;;;8.32;;
75837;SDS011;64480;52.040;113.502;2023-08-01T13:51:47;18.35;;;8.73;;
75837;SDS011;64480;52.040;113.502;2023-08-01T13:54:51;26.38;;;9.45;;
75837;SDS011;64480;52.040;113.502;2023-08-01T13:57:56;14.35;;;8.00;;
75837;SDS011;64480;52.040;113.502;2023-08-01T14:01:02;20.23;;;8.43;;
75837;SDS011;64480;52.040;113.502;2023-08-01T14:04:06;24.90;;;8.93;;
75837;SDS011;64480;52.040;113.502;2023-08-01T14:07:10;17.25;;;8.13;;
75837;SDS011;64480;52.040;113.502;2023-08-01T14:10:14;17.17;;;8.18;;
75837;SDS011;64480;52.040;113.502;2023-08-01T14:13:23;16.17;;;7.85;;
75837;SDS011;64480;52.040;113.502;2023-08-01T14:16:29;14.60;;;7.68;;
75837;SDS011;64480;52.040;113.502;2023-08-01T14:19:33;18.20;;;8.82;;
75837;SDS011;64480;52.040;113.502;2023-08-01T14:22:40;14.95;;;9.43;;
75837;SDS011;64480;52.040;113.502;2023-08-01T14:25:47;30.55;;;11.43;;
75837;SDS011;64480;52.040;113.502;2023-08-01T14:28:51;25.00;;;11.35;;
75837;SDS011;64480;52.040;113.502;2023-08-01T14:31:56;21.65;;;11.00;;
75837;SDS011;64480;52.040;113.502;2023-08-01T14:35:00;25.90;;;11.02;;
75837;SDS011;64480;52.040;113.502;2023-08-01T14:38:06;34.55;;;11.57;;
75837;SDS011;64480;52.040;113.502;2023-08-01T14:41:09;23.23;;;11.90;;
75837;SDS011;64480;52.040;113.502;2023-08-01T14:44:26;20.80;;;11.05;;
75837;SDS011;64480;52.040;113.502;2023-08-01T14:47:38;19.38;;;11.50;;
75837;SDS011;64480;52.040;113.502;2023-08-01T14:50:44;20.77;;;9.45;;
75837;SDS011;64480;52.040;113.502;2023-08-01T14:53:49;22.88;;;9.00;;
75837;SDS011;64480;52.040;113.502;2023-08-01T14:56:54;16.58;;;7.90;;
75837;SDS011;64480;52.040;113.502;2023-08-01T15:00:01;14.82;;;8.15;;
75837;SDS011;64480;52.040;113.502;2023-08-01T15:03:07;16.48;;;8.07;;
75837;SDS011;64480;52.040;113.502;2023-08-01T15:06:11;18.67;;;8.90;;
75837;SDS011;64480;52.040;113.502;2023-08-01T15:09:17;15.38;;;7.57;;
75837;SDS011;64480;52.040;113.502;2023-08-01T15:12:21;10.38;;;8.00;;
75837;SDS011;64480;52.040;113.502;2023-08-01T15:15:28;21.23;;;7.65;;
75837;SDS011;64480;52.040;113.502;2023-08-01T15:18:32;9.45;;;6.30;;
75837;SDS011;64480;52.040;113.502;2023-08-01T15:21:37;15.25;;;7.50;;
75837;SDS011;64480;52.040;113.502;2023-08-01T15:24:44;17.40;;;8.30;;
75837;SDS011;64480;52.040;113.502;2023-08-01T15:27:48;16.40;;;7.00;;
75837;SDS011;64480;52.040;113.502;2023-08-01T15:31:08;18.35;;;9.05;;
75837;SDS011;64480;52.040;113.502;2023-08-01T15:34:13;15.02;;;9.13;;
75837;SDS011;64480;52.040;113.502;2023-08-01T15:37:17;14.98;;;8.80;;
75837;SDS011;64480;52.040;113.502;2023-08-01T15:40:21;16.33;;;8.85;;
75837;SDS011;64480;52.040;113.502;2023-08-01T15:43:25;22.10;;;10.50;;
75837;SDS011;64480;52.040;113.502;2023-08-01T15:46:30;21.20;;;10.82;;
75837;SDS011;64480;52.040;113.502;2023-08-01T15:49:36;21.52;;;10.43;;
75837;SDS011;64480;52.040;113.502;2023-08-01T15:52:43;16.20;;;10.85;;
75837;SDS011;64480;52.040;113.502;2023-08-01T15:55:53;20.15;;;10.18;;
75837;SDS011;64480;52.040;113.502;2023-08-01T15:59:02;22.88;;;10.82;;
75837;SDS011;64480;52.040;113.502;2023-08-01T16:02:06;16.80;;;10.40;;
75837;SDS011;64480;52.040;113.502;2023-08-01T16:05:11;17.35;;;9.70;;
75837;SDS011;64480;52.040;113.502;2023-08-01T16:08:14;16.42;;;9.25;;
75837;SDS011;64480;52.040;113.502;2023-08-01T16:11:18;20.73;;;10.23;;
75837;SDS011;64480;52.040;113.502;2023-08-01T16:14:23;15.57;;;9.63;;
75837;SDS011;64480;52.040;113.502;2023-08-01T16:17:30;18.25;;;9.93;;
75837;SDS011;64480;52.040;113.502;2023-08-01T16:20:35;19.42;;;9.77;;
75837;SDS011;64480;52.040;113.502;2023-08-01T16:23:39;16.27;;;10.52;;
75837;SDS011;64480;52.040;113.502;2023-08-01T16:26:42;20.88;;;9.73;;
75837;SDS011;64480;52.040;113.502;2023-08-01T16:29:47;19.85;;;10.40;;
75837;SDS011;64480;52.040;113.502;2023-08-01T16:32:51;27.27;;;10.15;;
75837;SDS011;64480;52.040;113.502;2023-08-01T16:35:54;20.77;;;9.48;;
75837;SDS011;64480;52.040;113.502;2023-08-01T16:38:58;17.05;;;9.00;;
75837;SDS011;64480;52.040;113.502;2023-08-01T16:42:02;19.10;;;9.70;;
75837;SDS011;64480;52.040;113.502;2023-08-01T16:45:06;19.58;;;10.25;;
75837;SDS011;64480;52.040;113.502;2023-08-01T16:48:11;17.02;;;9.68;;
75837;SDS011;64480;52.040;113.502;2023-08-01T16:51:15;23.08;;;10.02;;
75837;SDS011;64480;52.040;113.502;2023-08-01T16:54:19;17.50;;;9.45;;
75837;SDS011;64480;52.040;113.502;2023-08-01T16:57:24;21.27;;;10.43;;
75837;SDS011;64480;52.040;113.502;2023-08-01T17:00:28;16.80;;;8.48;;
75837;SDS011;64480;52.040;113.502;2023-08-01T17:03:32;17.48;;;8.82;;
75837;SDS011;64480;52.040;113.502;2023-08-01T17:06:38;15.38;;;8.60;;
75837;SDS011;64480;52.040;113.502;2023-08-01T17:09:43;17.17;;;8.85;;
75837;SDS011;64480;52.040;113.502;2023-08-01T17:12:47;19.48;;;9.32;;
75837;SDS011;64480;52.040;113.502;2023-08-01T17:15:51;16.13;;;9.50;;
75837;SDS011;64480;52.040;113.502;2023-08-01T17:18:55;16.13;;;9.48;;
75837;SDS011;64480;52.040;113.502;2023-08-01T17:21:59;16.33;;;9.30;;
75837;SDS011;64480;52.040;113.502;2023-08-01T17:25:03;18.20;;;9.38;;
75837;SDS011;64480;52.040;113.502;2023-08-01T17:28:07;15.43;;;10.07;;
75837;SDS011;64480;52.040;113.502;2023-08-01T17:31:11;20.92;;;9.05;;
75837;SDS011;64480;52.040;113.502;2023-08-01T17:34:19;15.88;;;9.30;;
75837;SDS011;64480;52.040;113.502;2023-08-01T17:37:22;17.90;;;9.55;;
75837;SDS011;64480;52.040;113.502;2023-08-01T17:40:27;14.00;;;8.93;;
75837;SDS011;64480;52.040;113.502;2023-08-01T17:43:31;18.15;;;10.10;;
75837;SDS011;64480;52.040;113.502;2023-08-01T17:46:34;15.25;;;9.85;;
75837;SDS011;64480;52.040;113.502;2023-08-01T17:49:38;17.98;;;9.45;;
75837;SDS011;64480;52.040;113.502;2023-08-01T17:52:41;14.55;;;9.05;;
75837;SDS011;64480;52.040;113.502;2023-08-01T17:55:44;16.25;;;8.77;;
75837;SDS011;64480;52.040;113.502;2023-08-01T17:58:49;12.90;;;8.32;;
75837;SDS011;64480;52.040;113.502;2023-08-01T18:01:52;13.75;;;8.30;;
75837;SDS011;64480;52.040;113.502;2023-08-01T18:04:56;16.92;;;8.32;;
75837;SDS011;64480;52.040;113.502;2023-08-01T18:07:59;13.70;;;7.78;;
75837;SDS011;64480;52.040;113.502;2023-08-01T18:11:05;12.68;;;8.05;;
75837;SDS011;64480;52.040;113.502;2023-08-01T18:14:23;20.55;;;8.38;;
75837;SDS011;64480;52.040;113.502;2023-08-01T18:17:27;15.75;;;8.48;;
75837;SDS011;64480;52.040;113.502;2023-08-01T18:20:31;16.40;;;9.32;;
75837;SDS011;64480;52.040;113.502;2023-08-01T18:23:35;15.63;;;8.73;;
75837;SDS011;64480;52.040;113.502;2023-08-01T18:26:40;17.63;;;8.70;;